Time;durP1;ratioP1;P1;durP2;ratioP2;P2;SDS_P1;SDS_P2;PMS_P1;PMS_P2;Temp;Humidity;BMP_temperature;BMP_pressure;BME280_temperature;BME280_humidity;BME280_pressure;Samples;Min_cycle;Max_cycle;Signal;HPM_P1;HPM_P2
2022/12/13 00:01:54;;;;;;;58.30;31.52;;;;;;;;;;4998480;28;99047;-73
2022/12/13 00:04:22;;;;;;;55.30;31.25;;;;;;;;;;5003886;28;100138;-73
2022/12/13 00:06:49;;;;;;;67.43;32.47;;;;;;;;;;4992560;28;99975;-74
2022/12/13 00:09:16;;;;;;;58.55;30.20;;;;;;;;;;4992482;28;99182;-74
2022/12/13 00:11:43;;;;;;;53.67;30.40;;;;;;;;;;5001396;28;99384;-74
2022/12/13 00:14:12;;;;;;;57.25;30.75;;;;;;;;;;4992572;28;99414;-74
2022/12/13 00:16:45;;;;;;;55.07;32.17;;;;;;;;;;4993592;28;99858;-74
2022/12/13 00:19:12;;;;;;;56.40;31.77;;;;;;;;;;4999132;28;100321;-74
2022/12/13 00:21:39;;;;;;;59.40;32.15;;;;;;;;;;4994119;28;99584;-74
2022/12/13 00:24:06;;;;;;;67.70;32.55;;;;;;;;;;4990009;28;100525;-74
2022/12/13 00:26:32;;;;;;;71.40;31.67;;;;;;;;;;4992098;28;99213;-74
2022/12/13 00:28:59;;;;;;;50.72;30.45;;;;;;;;;;5000722;28;99233;-74
2022/12/13 00:31:26;;;;;;;58.97;32.08;;;;;;;;;;4984943;28;100410;-74
2022/12/13 00:34:12;;;;;;;64.90;31.13;;;;;;;;;;4985753;28;99545;-74
2022/12/13 00:36:39;;;;;;;49.80;29.10;;;;;;;;;;4984281;28;99685;-75
2022/12/13 00:39:06;;;;;;;53.33;30.30;;;;;;;;;;4999367;28;100442;-73
2022/12/13 00:41:33;;;;;;;58.45;31.58;;;;;;;;;;4984537;28;100231;-72
2022/12/13 00:44:00;;;;;;;58.65;30.75;;;;;;;;;;4992414;28;100463;-73
2022/12/13 00:46:27;;;;;;;51.00;28.00;;;;;;;;;;4983872;28;99182;-74
2022/12/13 00:48:55;;;;;;;55.50;28.80;;;;;;;;;;4999081;28;99925;-74
2022/12/13 00:51:22;;;;;;;53.55;28.60;;;;;;;;;;4992126;28;99370;-74
2022/12/13 00:53:48;;;;;;;50.10;27.55;;;;;;;;;;4989793;28;99038;-74
2022/12/13 00:56:17;;;;;;;50.97;29.50;;;;;;;;;;4991654;28;99235;-73
2022/12/13 00:58:43;;;;;;;50.08;27.55;;;;;;;;;;4985369;28;98174;-73
2022/12/13 01:01:18;;;;;;;47.72;27.10;;;;;;;;;;4988202;28;99274;-74
2022/12/13 01:03:44;;;;;;;48.25;26.90;;;;;;;;;;4999341;28;99938;-73
2022/12/13 01:06:12;;;;;;;50.78;26.65;;;;;;;;;;4999673;28;99900;-74
2022/12/13 01:08:41;;;;;;;45.10;27.45;;;;;;;;;;5000353;28;100744;-74
2022/12/13 01:11:08;;;;;;;45.65;26.65;;;;;;;;;;4998062;28;99869;-73
2022/12/13 01:13:34;;;;;;;51.17;28.95;;;;;;;;;;4986446;28;100590;-73
2022/12/13 01:16:02;;;;;;;48.22;25.88;;;;;;;;;;4984834;28;99961;-74
2022/12/13 01:18:28;;;;;;;54.20;27.58;;;;;;;;;;4983841;28;100338;-73
2022/12/13 01:20:57;;;;;;;53.03;27.10;;;;;;;;;;4990597;28;101945;-73
2022/12/13 01:23:23;;;;;;;53.95;27.88;;;;;;;;;;4994619;28;99957;-74
2022/12/13 01:25:50;;;;;;;40.10;25.13;;;;;;;;;;4999608;28;99148;-74
2022/12/13 01:28:17;;;;;;;54.10;26.35;;;;;;;;;;4991940;28;99319;-74
2022/12/13 01:30:43;;;;;;;39.60;24.45;;;;;;;;;;4983201;28;100430;-74
2022/12/13 01:33:09;;;;;;;54.45;27.48;;;;;;;;;;4993047;28;100070;-74
2022/12/13 01:35:39;;;;;;;42.50;26.58;;;;;;;;;;4991340;28;99006;-74
2022/12/13 01:38:06;;;;;;;46.70;27.55;;;;;;;;;;4986716;28;100207;-74
2022/12/13 01:40:44;;;;;;;50.67;27.15;;;;;;;;;;4989083;28;99863;-73
2022/12/13 01:43:12;;;;;;;56.63;27.52;;;;;;;;;;4992242;28;99926;-73
2022/12/13 01:45:40;;;;;;;47.42;25.52;;;;;;;;;;4992366;28;100172;-73
2022/12/13 01:48:11;;;;;;;48.20;25.33;;;;;;;;;;5003270;28;99276;-73
2022/12/13 01:50:40;;;;;;;48.45;27.73;;;;;;;;;;4996977;28;99412;-74
2022/12/13 01:53:08;;;;;;;56.10;26.27;;;;;;;;;;4983272;28;100115;-74
2022/12/13 01:55:36;;;;;;;46.88;27.38;;;;;;;;;;4991303;28;100159;-73
2022/12/13 01:58:07;;;;;;;49.45;26.50;;;;;;;;;;4983857;28;98505;-73
2022/12/13 02:00:34;;;;;;;47.67;27.35;;;;;;;;;;4993790;28;99357;-73
2022/12/13 02:03:01;;;;;;;49.72;27.83;;;;;;;;;;4995898;28;99654;-73
2022/12/13 02:05:33;;;;;;;45.80;26.42;;;;;;;;;;4992234;28;99297;-73
2022/12/13 02:08:00;;;;;;;45.60;25.85;;;;;;;;;;4992254;28;98837;-73
2022/12/13 02:10:27;;;;;;;52.50;25.63;;;;;;;;;;4983792;28;99161;-73
2022/12/13 02:12:53;;;;;;;46.67;26.55;;;;;;;;;;4984527;28;100191;-73
2022/12/13 02:15:20;;;;;;;48.72;27.10;;;;;;;;;;4996346;28;99073;-73
2022/12/13 02:17:53;;;;;;;52.83;27.92;;;;;;;;;;5002218;28;100292;-73
2022/12/13 02:20:38;;;;;;;57.38;28.55;;;;;;;;;;4985873;28;99324;-73
2022/12/13 02:23:04;;;;;;;49.72;28.17;;;;;;;;;;4987298;28;100784;-72
2022/12/13 02:25:59;;;;;;;42.45;26.08;;;;;;;;;;5002068;28;99618;-73
2022/12/13 02:28:44;;;;;;;52.03;28.15;;;;;;;;;;4989445;28;99911;-73
2022/12/13 02:31:21;;;;;;;50.65;26.52;;;;;;;;;;4999194;28;100135;-73
2022/12/13 02:33:47;;;;;;;48.28;27.50;;;;;;;;;;5004743;28;99902;-73
2022/12/13 02:36:34;;;;;;;50.50;27.90;;;;;;;;;;5001963;28;99506;-73
2022/12/13 02:39:17;;;;;;;49.85;26.88;;;;;;;;;;4995356;28;98733;-73
2022/12/13 02:42:01;;;;;;;50.58;27.50;;;;;;;;;;4993923;28;98988;-73
2022/12/13 02:44:28;;;;;;;57.28;29.25;;;;;;;;;;4994141;28;100014;-73
2022/12/13 02:47:03;;;;;;;45.15;26.20;;;;;;;;;;4986013;28;100889;-73
2022/12/13 02:49:31;;;;;;;52.08;28.52;;;;;;;;;;4987782;28;99982;-74
2022/12/13 02:51:58;;;;;;;49.20;28.95;;;;;;;;;;5005857;28;99963;-74
2022/12/13 02:54:24;;;;;;;48.97;28.52;;;;;;;;;;4994487;28;99174;-74
2022/12/13 02:56:54;;;;;;;58.65;27.48;;;;;;;;;;4988670;28;100077;-75
2022/12/13 02:59:23;;;;;;;55.25;27.90;;;;;;;;;;4995584;28;101003;-74
2022/12/13 03:01:59;;;;;;;48.15;27.13;;;;;;;;;;5000058;28;99988;-73
2022/12/13 03:07:47;;;;;;;49.80;26.95;;;;;;;;;;4986851;28;100305;-72
2022/12/13 03:10:16;;;;;;;54.05;27.38;;;;;;;;;;4994415;28;100369;-73
2022/12/13 03:15:43;;;;;;;46.85;26.30;;;;;;;;;;5000269;28;100376;-73
2022/12/13 03:18:16;;;;;;;53.27;25.70;;;;;;;;;;4999169;28;100106;-72
2022/12/13 03:20:48;;;;;;;61.13;26.65;;;;;;;;;;4988054;28;100338;-74
2022/12/13 03:23:16;;;;;;;48.40;27.00;;;;;;;;;;4986616;28;99243;-73
2022/12/13 03:25:43;;;;;;;52.55;28.85;;;;;;;;;;4994277;28;100221;-73
2022/12/13 03:28:09;;;;;;;46.15;26.15;;;;;;;;;;4991966;28;100214;-73
2022/12/13 03:30:35;;;;;;;47.70;27.45;;;;;;;;;;5005120;28;99909;-72
2022/12/13 03:33:02;;;;;;;47.60;25.80;;;;;;;;;;5000360;28;99756;-73
2022/12/13 03:35:28;;;;;;;52.40;26.90;;;;;;;;;;4985804;28;100472;-73
2022/12/13 03:38:09;;;;;;;51.13;26.63;;;;;;;;;;4996968;28;100102;-73
2022/12/13 03:40:36;;;;;;;47.90;25.35;;;;;;;;;;4995058;28;99174;-73
2022/12/13 03:43:02;;;;;;;42.75;24.13;;;;;;;;;;4993850;28;99895;-73
2022/12/13 03:45:28;;;;;;;46.72;26.10;;;;;;;;;;4991964;28;99995;-73
2022/12/13 03:47:55;;;;;;;47.47;26.15;;;;;;;;;;5001713;28;99428;-73
2022/12/13 03:50:21;;;;;;;49.35;25.10;;;;;;;;;;4998477;28;99000;-74
2022/12/13 03:52:59;;;;;;;43.63;24.17;;;;;;;;;;4995770;28;98940;-73
2022/12/13 03:55:26;;;;;;;41.95;25.90;;;;;;;;;;4991284;28;99338;-73
2022/12/13 03:57:52;;;;;;;43.10;23.98;;;;;;;;;;4992977;28;98975;-74
2022/12/13 04:00:19;;;;;;;54.47;25.40;;;;;;;;;;4992090;28;99052;-73
2022/12/13 04:02:45;;;;;;;45.63;25.38;;;;;;;;;;4988433;28;100146;-73
2022/12/13 04:05:11;;;;;;;42.38;23.63;;;;;;;;;;4991165;28;100826;-73
2022/12/13 04:07:39;;;;;;;41.20;24.17;;;;;;;;;;4995621;28;100279;-73
2022/12/13 04:10:13;;;;;;;43.60;23.33;;;;;;;;;;5001776;28;99254;-73
2022/12/13 04:15:37;;;;;;;39.50;23.77;;;;;;;;;;5003870;28;100103;-73
2022/12/13 04:18:03;;;;;;;49.97;25.08;;;;;;;;;;4987366;28;100103;-73
2022/12/13 04:20:29;;;;;;;44.05;25.48;;;;;;;;;;4988023;28;100234;-74
2022/12/13 04:22:57;;;;;;;43.33;23.13;;;;;;;;;;5000966;28;99967;-74
2022/12/13 04:25:25;;;;;;;45.08;24.42;;;;;;;;;;4984661;28;99145;-74
2022/12/13 04:27:51;;;;;;;46.70;22.85;;;;;;;;;;4984159;28;100742;-73
2022/12/13 04:30:18;;;;;;;39.78;23.42;;;;;;;;;;5000592;28;99191;-74
2022/12/13 04:32:44;;;;;;;45.15;23.13;;;;;;;;;;4987227;28;100084;-74
2022/12/13 04:35:10;;;;;;;45.83;23.75;;;;;;;;;;4983687;28;99402;-74
2022/12/13 04:37:37;;;;;;;45.78;25.58;;;;;;;;;;4985200;28;99897;-73
2022/12/13 04:40:04;;;;;;;39.08;24.88;;;;;;;;;;4992324;28;99242;-74
2022/12/13 04:42:30;;;;;;;43.25;22.95;;;;;;;;;;4987576;28;100272;-73
2022/12/13 04:44:56;;;;;;;49.22;25.15;;;;;;;;;;4986032;28;100112;-74
2022/12/13 04:47:23;;;;;;;54.15;26.10;;;;;;;;;;4984795;28;100027;-74
2022/12/13 04:49:49;;;;;;;49.13;24.77;;;;;;;;;;4995679;28;100216;-74
2022/12/13 04:52:15;;;;;;;47.30;27.80;;;;;;;;;;4984495;28;100076;-74
2022/12/13 04:54:47;;;;;;;53.50;25.67;;;;;;;;;;4984631;28;98798;-74
2022/12/13 04:57:21;;;;;;;47.50;25.35;;;;;;;;;;4992843;28;99959;-73
2022/12/13 04:59:47;;;;;;;42.15;24.92;;;;;;;;;;4989236;28;100286;-73
2022/12/13 05:02:14;;;;;;;43.85;24.73;;;;;;;;;;4995271;28;99528;-73
2022/12/13 05:04:49;;;;;;;39.75;22.95;;;;;;;;;;4988816;28;100213;-73
2022/12/13 05:07:21;;;;;;;53.53;23.58;;;;;;;;;;5001694;28;100129;-73
2022/12/13 05:09:48;;;;;;;46.45;22.52;;;;;;;;;;5003696;28;100453;-73
2022/12/13 05:12:14;;;;;;;35.55;22.27;;;;;;;;;;4997189;28;100069;-73
2022/12/13 05:14:48;;;;;;;44.22;23.13;;;;;;;;;;4984274;28;100987;-74
2022/12/13 05:17:14;;;;;;;39.20;24.17;;;;;;;;;;4998778;28;100062;-74
2022/12/13 05:19:41;;;;;;;41.85;23.20;;;;;;;;;;4993429;28;100913;-74
2022/12/13 05:22:14;;;;;;;42.90;24.85;;;;;;;;;;4994251;28;99491;-74
2022/12/13 05:24:46;;;;;;;36.90;23.15;;;;;;;;;;4983822;28;99937;-73
2022/12/13 05:27:12;;;;;;;43.17;24.92;;;;;;;;;;4988128;28;99085;-73
2022/12/13 05:29:54;;;;;;;45.85;22.90;;;;;;;;;;4992623;28;99047;-74
2022/12/13 05:32:37;;;;;;;40.42;24.02;;;;;;;;;;4988902;28;99207;-74
2022/12/13 05:35:14;;;;;;;39.15;22.65;;;;;;;;;;4985073;28;99384;-74
2022/12/13 05:37:52;;;;;;;41.50;23.42;;;;;;;;;;4984144;28;100505;-74
2022/12/13 05:40:21;;;;;;;38.47;22.85;;;;;;;;;;4986368;28;99937;-73
2022/12/13 05:42:47;;;;;;;44.58;23.40;;;;;;;;;;4974572;28;102606;-74
2022/12/13 05:45:14;;;;;;;45.97;22.65;;;;;;;;;;4997187;28;99956;-74
2022/12/13 05:47:41;;;;;;;39.97;22.67;;;;;;;;;;4994564;28;99918;-73
2022/12/13 05:50:08;;;;;;;45.17;23.02;;;;;;;;;;4999454;28;100609;-73
2022/12/13 05:52:35;;;;;;;37.85;23.33;;;;;;;;;;5004037;28;100125;-73
2022/12/13 05:55:01;;;;;;;41.13;23.67;;;;;;;;;;4994959;28;99364;-73
2022/12/13 05:57:28;;;;;;;42.45;23.15;;;;;;;;;;4993652;28;99400;-73
2022/12/13 05:59:54;;;;;;;45.08;22.40;;;;;;;;;;4996698;28;100028;-74
2022/12/13 06:02:21;;;;;;;43.08;21.02;;;;;;;;;;4995119;28;100272;-73
2022/12/13 06:04:47;;;;;;;40.08;22.52;;;;;;;;;;4986916;28;99858;-73
2022/12/13 06:07:14;;;;;;;39.50;22.45;;;;;;;;;;4993525;28;99293;-73
2022/12/13 06:09:40;;;;;;;42.30;23.05;;;;;;;;;;4995455;28;100456;-73
2022/12/13 06:12:08;;;;;;;47.60;23.00;;;;;;;;;;4999103;28;99113;-74
2022/12/13 06:14:54;;;;;;;39.03;23.00;;;;;;;;;;4995664;28;100420;-74
2022/12/13 06:17:30;;;;;;;39.30;23.13;;;;;;;;;;4986829;28;99368;-74
2022/12/13 06:19:57;;;;;;;41.20;23.00;;;;;;;;;;4986709;28;99343;-74
2022/12/13 06:22:24;;;;;;;41.78;24.70;;;;;;;;;;4995056;28;100124;-74
2022/12/13 06:24:51;;;;;;;41.40;23.00;;;;;;;;;;4995412;28;99040;-74
2022/12/13 06:27:17;;;;;;;40.90;21.42;;;;;;;;;;4996780;28;99559;-74
2022/12/13 06:29:43;;;;;;;39.35;22.90;;;;;;;;;;4992151;28;100240;-74
2022/12/13 06:32:10;;;;;;;36.22;23.45;;;;;;;;;;4999888;28;100030;-73
2022/12/13 06:34:36;;;;;;;37.08;23.20;;;;;;;;;;4992754;28;100175;-73
2022/12/13 06:37:03;;;;;;;43.22;23.98;;;;;;;;;;4995294;28;100331;-74
2022/12/13 06:39:30;;;;;;;37.10;23.55;;;;;;;;;;4995146;28;99981;-74
2022/12/13 06:41:59;;;;;;;41.63;24.13;;;;;;;;;;4986802;28;100098;-74
2022/12/13 06:44:25;;;;;;;43.40;24.80;;;;;;;;;;5000945;28;99184;-74
2022/12/13 06:46:51;;;;;;;44.00;23.38;;;;;;;;;;4986391;28;101797;-74
2022/12/13 06:49:37;;;;;;;40.55;21.27;;;;;;;;;;4985650;28;98592;-74
2022/12/13 06:52:04;;;;;;;40.28;22.65;;;;;;;;;;4993798;28;99128;-74
2022/12/13 06:54:30;;;;;;;41.80;23.77;;;;;;;;;;4991480;28;98967;-74
2022/12/13 06:56:57;;;;;;;47.65;24.13;;;;;;;;;;4990421;28;99841;-74
2022/12/13 06:59:23;;;;;;;42.67;23.05;;;;;;;;;;5002813;28;101130;-74
2022/12/13 07:01:49;;;;;;;39.45;23.35;;;;;;;;;;4986372;28;100176;-74
2022/12/13 07:04:16;;;;;;;41.60;24.38;;;;;;;;;;4993871;28;99215;-74
2022/12/13 07:06:56;;;;;;;40.58;23.25;;;;;;;;;;4986398;28;100062;-74
2022/12/13 07:09:28;;;;;;;44.55;22.50;;;;;;;;;;4985430;28;98995;-73
2022/12/13 07:11:54;;;;;;;47.85;23.65;;;;;;;;;;4986218;28;98647;-73
2022/12/13 07:14:21;;;;;;;46.42;24.05;;;;;;;;;;4994974;28;100249;-74
2022/12/13 07:16:47;;;;;;;49.83;24.02;;;;;;;;;;4996268;28;100382;-74
2022/12/13 07:19:13;;;;;;;48.58;25.00;;;;;;;;;;4986273;28;100110;-73
2022/12/13 07:21:49;;;;;;;43.72;24.73;;;;;;;;;;4990770;28;100715;-73
2022/12/13 07:24:16;;;;;;;43.08;23.52;;;;;;;;;;5000713;28;100317;-73
2022/12/13 07:26:42;;;;;;;33.97;22.35;;;;;;;;;;4994850;28;100050;-73
2022/12/13 07:29:09;;;;;;;41.20;23.02;;;;;;;;;;4999099;28;99608;-74
2022/12/13 07:31:36;;;;;;;42.63;23.33;;;;;;;;;;4993831;28;99669;-74
2022/12/13 07:34:02;;;;;;;40.80;23.00;;;;;;;;;;4998770;28;100301;-73
2022/12/13 07:36:29;;;;;;;41.95;22.92;;;;;;;;;;4988943;28;100534;-74
2022/12/13 07:38:56;;;;;;;44.33;23.42;;;;;;;;;;4996422;28;98893;-73
2022/12/13 07:41:23;;;;;;;41.67;23.30;;;;;;;;;;4998837;28;101960;-72
2022/12/13 07:43:52;;;;;;;26.40;18.30;;;;;;;;;;4995320;28;99914;-74
2022/12/13 07:46:21;;;;;;;43.55;20.08;;;;;;;;;;5000165;28;99340;-74
2022/12/13 07:49:02;;;;;;;34.20;20.55;;;;;;;;;;5001004;28;100262;-74
2022/12/13 07:51:29;;;;;;;37.28;21.20;;;;;;;;;;4999439;28;100341;-74
2022/12/13 07:53:56;;;;;;;32.70;21.50;;;;;;;;;;4996221;28;99109;-74
2022/12/13 07:56:22;;;;;;;41.15;21.80;;;;;;;;;;4996483;28;99785;-74
2022/12/13 07:58:49;;;;;;;34.03;21.80;;;;;;;;;;4986448;28;100061;-73
2022/12/13 08:01:17;;;;;;;35.30;22.15;;;;;;;;;;5001198;28;100112;-73
2022/12/13 08:03:46;;;;;;;41.47;21.15;;;;;;;;;;4994297;28;99404;-73
2022/12/13 08:06:12;;;;;;;41.38;22.00;;;;;;;;;;5003807;28;99199;-73
2022/12/13 08:08:40;;;;;;;51.78;23.95;;;;;;;;;;4988497;28;100146;-74
2022/12/13 08:11:08;;;;;;;41.53;22.88;;;;;;;;;;5002618;28;99967;-74
2022/12/13 08:13:34;;;;;;;48.90;22.48;;;;;;;;;;5000052;28;100257;-74
2022/12/13 08:16:02;;;;;;;38.00;23.02;;;;;;;;;;4999980;28;100681;-74
2022/12/13 08:18:29;;;;;;;39.03;21.98;;;;;;;;;;4991182;28;99073;-74
2022/12/13 08:20:59;;;;;;;52.53;25.15;;;;;;;;;;4992156;28;99954;-74
2022/12/13 08:23:25;;;;;;;43.22;25.00;;;;;;;;;;5000305;28;99858;-73
2022/12/13 08:25:53;;;;;;;52.60;24.40;;;;;;;;;;4996999;28;100069;-74
2022/12/13 08:28:20;;;;;;;41.90;24.40;;;;;;;;;;4990159;28;98532;-74
2022/12/13 08:30:47;;;;;;;43.35;23.70;;;;;;;;;;4994424;28;99994;-74
2022/12/13 08:33:13;;;;;;;49.22;25.23;;;;;;;;;;4994577;28;100219;-74
2022/12/13 08:35:40;;;;;;;44.95;24.27;;;;;;;;;;4993969;28;101688;-74
2022/12/13 08:38:06;;;;;;;42.75;24.20;;;;;;;;;;4993566;28;100646;-75
2022/12/13 08:40:33;;;;;;;41.65;25.65;;;;;;;;;;4995247;28;100630;-75
2022/12/13 08:43:00;;;;;;;48.15;25.75;;;;;;;;;;5000116;28;100292;-73
2022/12/13 08:45:26;;;;;;;42.53;21.48;;;;;;;;;;4995213;28;100284;-74
2022/12/13 08:47:55;;;;;;;45.60;24.17;;;;;;;;;;4997649;28;101234;-73
2022/12/13 08:50:22;;;;;;;54.33;26.17;;;;;;;;;;5001483;28;100203;-71
2022/12/13 08:52:50;;;;;;;49.33;26.85;;;;;;;;;;4992257;28;100625;-74
2022/12/13 08:55:16;;;;;;;47.28;25.83;;;;;;;;;;5002852;28;100593;-73
2022/12/13 08:57:56;;;;;;;51.78;25.25;;;;;;;;;;5004265;28;100164;-73
2022/12/13 09:00:26;;;;;;;48.53;26.20;;;;;;;;;;5002474;28;101243;-73
2022/12/13 09:02:56;;;;;;;54.63;27.45;;;;;;;;;;5000596;28;99570;-73
2022/12/13 09:05:22;;;;;;;44.45;26.70;;;;;;;;;;5006216;28;100141;-73
2022/12/13 09:08:01;;;;;;;53.65;26.50;;;;;;;;;;5003599;28;100117;-73
2022/12/13 09:10:28;;;;;;;53.53;26.83;;;;;;;;;;4999937;28;100055;-73
2022/12/13 09:13:04;;;;;;;48.65;26.45;;;;;;;;;;4996315;28;99429;-73
2022/12/13 09:15:39;;;;;;;46.58;25.42;;;;;;;;;;5002369;28;100156;-73
2022/12/13 09:18:11;;;;;;;;;;;;;;;;;;4998335;28;99045;-74
2022/12/13 09:20:41;;;;;;;44.28;24.63;;;;;;;;;;4999790;28;128210;-73
2022/12/13 09:23:08;;;;;;;42.22;24.42;;;;;;;;;;5001023;28;100253;-73
2022/12/13 09:25:39;;;;;;;49.10;26.70;;;;;;;;;;5002918;28;100541;-73
2022/12/13 09:28:07;;;;;;;46.40;26.05;;;;;;;;;;5009220;28;100912;-74
2022/12/13 09:30:34;;;;;;;50.42;27.60;;;;;;;;;;5004262;28;99424;-72
2022/12/13 09:33:00;;;;;;;41.85;26.17;;;;;;;;;;5006372;28;98961;-75
2022/12/13 09:35:46;;;;;;;56.42;28.92;;;;;;;;;;5005327;28;99407;-73
2022/12/13 09:38:13;;;;;;;64.15;30.88;;;;;;;;;;5004843;28;100280;-73
2022/12/13 09:40:42;;;;;;;46.15;30.73;;;;;;;;;;5005081;28;100206;-73
2022/12/13 09:43:11;;;;;;;53.75;30.42;;;;;;;;;;4999637;28;99371;-74
2022/12/13 09:45:50;;;;;;;49.83;29.42;;;;;;;;;;5004857;28;99669;-74
2022/12/13 09:48:17;;;;;;;55.05;30.35;;;;;;;;;;5003971;28;99983;-73
2022/12/13 09:50:48;;;;;;;53.50;28.90;;;;;;;;;;5006298;28;101638;-74
2022/12/13 09:53:35;;;;;;;46.13;29.60;;;;;;;;;;5005792;28;99879;-74
2022/12/13 09:56:02;;;;;;;48.33;30.13;;;;;;;;;;5001587;28;100181;-74
2022/12/13 09:58:36;;;;;;;53.83;30.88;;;;;;;;;;5001245;28;100296;-73
2022/12/13 10:01:04;;;;;;;51.65;30.60;;;;;;;;;;4999252;28;99486;-74
2022/12/13 10:03:30;;;;;;;63.28;32.05;;;;;;;;;;5006146;28;99239;-74
2022/12/13 10:05:57;;;;;;;57.63;31.80;;;;;;;;;;5001753;28;100059;-73
2022/12/13 10:08:26;;;;;;;56.08;30.08;;;;;;;;;;5005633;28;99960;-74
2022/12/13 10:10:53;;;;;;;53.03;30.35;;;;;;;;;;5006637;28;100607;-74
2022/12/13 10:13:40;;;;;;;57.13;30.48;;;;;;;;;;5008996;28;100162;-74
2022/12/13 10:16:10;;;;;;;52.35;29.67;;;;;;;;;;5002712;28;100178;-75
2022/12/13 10:18:38;;;;;;;50.20;31.02;;;;;;;;;;4997224;28;99160;-74
2022/12/13 10:21:25;;;;;;;57.90;31.08;;;;;;;;;;5005829;28;100292;-74
2022/12/13 10:23:53;;;;;;;54.42;32.33;;;;;;;;;;5005427;28;100206;-74
2022/12/13 10:26:39;;;;;;;55.05;32.00;;;;;;;;;;4996901;28;98901;-74
2022/12/13 10:29:07;;;;;;;58.67;31.52;;;;;;;;;;5002834;28;99212;-74
2022/12/13 10:31:40;;;;;;;55.45;31.83;;;;;;;;;;5003100;28;100342;-72
2022/12/13 10:34:15;;;;;;;55.22;30.67;;;;;;;;;;5001272;28;99940;-73
2022/12/13 10:36:42;;;;;;;49.88;30.33;;;;;;;;;;5000313;28;101339;-73
2022/12/13 10:39:15;;;;;;;50.58;29.55;;;;;;;;;;5003630;28;100025;-73
2022/12/13 10:41:41;;;;;;;45.20;29.05;;;;;;;;;;5000761;28;99897;-73
2022/12/13 10:44:14;;;;;;;52.47;27.23;;;;;;;;;;5003424;28;100373;-74
2022/12/13 10:46:46;;;;;;;65.38;33.78;;;;;;;;;;4999871;28;100337;-73
2022/12/13 10:49:15;;;;;;;59.90;32.22;;;;;;;;;;5004838;28;99234;-73
2022/12/13 10:51:42;;;;;;;51.85;29.55;;;;;;;;;;5004624;28;98632;-73
2022/12/13 10:54:37;;;;;;;59.75;34.95;;;;;;;;;;5004232;28;99018;-73
2022/12/13 10:57:15;;;;;;;63.72;31.38;;;;;;;;;;4992653;28;100466;-73
2022/12/13 10:59:42;;;;;;;57.35;32.67;;;;;;;;;;5005085;28;100181;-73
2022/12/13 11:02:29;;;;;;;54.35;29.60;;;;;;;;;;5004896;28;99498;-73
2022/12/13 11:04:57;;;;;;;46.75;29.80;;;;;;;;;;4998653;28;100844;-74
2022/12/13 11:07:23;;;;;;;55.72;32.83;;;;;;;;;;5000971;28;100935;-74
2022/12/13 11:09:49;;;;;;;56.65;31.27;;;;;;;;;;5007494;28;101335;-73
2022/12/13 11:12:22;;;;;;;53.78;32.30;;;;;;;;;;5002719;28;100012;-73
2022/12/13 11:14:54;;;;;;;55.53;30.63;;;;;;;;;;5003960;28;99984;-73
2022/12/13 11:17:21;;;;;;;59.47;31.55;;;;;;;;;;5004271;28;100361;-73
2022/12/13 11:19:49;;;;;;;59.15;32.50;;;;;;;;;;4999812;28;99708;-73
2022/12/13 11:22:20;;;;;;;52.42;30.95;;;;;;;;;;5000506;28;99020;-73
2022/12/13 11:24:51;;;;;;;56.25;32.15;;;;;;;;;;5001827;28;99490;-73
2022/12/13 11:27:36;;;;;;;52.95;29.27;;;;;;;;;;5001598;28;100095;-73
2022/12/13 11:30:08;;;;;;;64.80;30.48;;;;;;;;;;5002644;28;100591;-73
2022/12/13 11:32:35;;;;;;;43.10;25.88;;;;;;;;;;5000184;28;101483;-71
2022/12/13 11:35:15;;;;;;;52.30;30.55;;;;;;;;;;5000579;28;100889;-74
2022/12/13 11:37:49;;;;;;;45.45;29.23;;;;;;;;;;5003259;28;100551;-73
2022/12/13 11:40:20;;;;;;;54.38;29.15;;;;;;;;;;4999669;28;99493;-72
2022/12/13 11:42:52;;;;;;;50.35;29.58;;;;;;;;;;4998428;28;98980;-73
2022/12/13 11:45:19;;;;;;;47.13;27.10;;;;;;;;;;5001360;28;99728;-73
2022/12/13 11:47:54;;;;;;;53.55;30.33;;;;;;;;;;4990912;28;100257;-74
2022/12/13 11:50:29;;;;;;;42.13;25.35;;;;;;;;;;4997837;28;99194;-73
2022/12/13 11:53:04;;;;;;;43.95;26.20;;;;;;;;;;5002108;28;100449;-73
2022/12/13 11:55:35;;;;;;;52.95;31.30;;;;;;;;;;4994416;28;101181;-73
2022/12/13 11:58:33;;;;;;;51.30;29.88;;;;;;;;;;4990486;28;100162;-73
2022/12/13 12:01:26;;;;;;;46.03;27.30;;;;;;;;;;4935823;28;101665;-72
2022/12/13 12:03:52;;;;;;;;;;;;;;;;;;5002712;28;100357;-73
2022/12/13 12:06:19;;;;;;;49.92;28.75;;;;;;;;;;5006293;28;127243;-74
2022/12/13 12:08:49;;;;;;;40.00;26.58;;;;;;;;;;5000257;28;101911;-74
2022/12/13 12:11:22;;;;;;;46.78;26.70;;;;;;;;;;4986449;28;99873;-73
2022/12/13 12:14:07;;;;;;;42.38;25.88;;;;;;;;;;4984597;28;99431;-71
2022/12/13 12:16:46;;;;;;;40.97;25.95;;;;;;;;;;4990807;28;99145;-71
2022/12/13 12:19:13;;;;;;;38.40;24.88;;;;;;;;;;4990454;28;99549;-71
2022/12/13 12:22:01;;;;;;;45.33;25.05;;;;;;;;;;4991345;28;99375;-71
2022/12/13 12:24:52;;;;;;;39.53;25.17;;;;;;;;;;4990215;28;100691;-71
2022/12/13 12:27:27;;;;;;;38.67;24.60;;;;;;;;;;4986419;28;99965;-72
2022/12/13 12:29:59;;;;;;;42.13;24.02;;;;;;;;;;4992029;28;99712;-72
2022/12/13 12:32:32;;;;;;;41.72;27.52;;;;;;;;;;4991596;28;99792;-72
2022/12/13 12:34:58;;;;;;;41.72;25.23;;;;;;;;;;5000580;28;99446;-73
2022/12/13 12:37:31;;;;;;;37.50;26.40;;;;;;;;;;4991532;28;99346;-73
2022/12/13 12:40:00;;;;;;;28.75;20.95;;;;;;;;;;4984456;28;100043;-72
2022/12/13 12:42:32;;;;;;;43.22;25.77;;;;;;;;;;4993838;28;100185;-72
2022/12/13 12:45:38;;;;;;;46.37;26.50;;;;;;;;;;5000932;28;99948;-72
2022/12/13 12:48:33;;;;;;;43.80;26.50;;;;;;;;;;4992587;28;100214;-71
2022/12/13 12:51:20;;;;;;;35.17;23.77;;;;;;;;;;5000886;28;100287;-72
2022/12/13 12:53:53;;;;;;;40.35;24.95;;;;;;;;;;5006233;28;99028;-72
2022/12/13 12:56:19;;;;;;;42.28;25.10;;;;;;;;;;4994607;28;100070;-72
2022/12/13 12:58:51;;;;;;;40.08;24.83;;;;;;;;;;4983844;28;99290;-72
2022/12/13 13:01:30;;;;;;;36.07;24.00;;;;;;;;;;4982869;28;99257;-72
2022/12/13 13:04:10;;;;;;;43.42;23.70;;;;;;;;;;4984990;28;99313;-72
2022/12/13 13:06:40;;;;;;;37.67;22.80;;;;;;;;;;4991734;28;99010;-72
2022/12/13 13:09:08;;;;;;;40.53;24.75;;;;;;;;;;4984036;28;100217;-72
2022/12/13 13:11:36;;;;;;;41.20;25.80;;;;;;;;;;4991521;28;100417;-72
2022/12/13 13:14:26;;;;;;;44.78;25.90;;;;;;;;;;4987762;28;99816;-71
2022/12/13 13:16:54;;;;;;;39.13;25.20;;;;;;;;;;4988248;28;101871;-73
2022/12/13 13:19:32;;;;;;;37.75;24.05;;;;;;;;;;4994557;28;98898;-72
2022/12/13 13:21:58;;;;;;;56.85;27.98;;;;;;;;;;4984017;28;100218;-72
2022/12/13 13:24:28;;;;;;;44.03;27.40;;;;;;;;;;4993659;28;100254;-73
2022/12/13 13:26:56;;;;;;;40.78;25.83;;;;;;;;;;4988655;28;99931;-73
2022/12/13 13:29:23;;;;;;;45.53;27.65;;;;;;;;;;4993750;28;100299;-73
2022/12/13 13:31:54;;;;;;;45.50;27.92;;;;;;;;;;5003480;28;100012;-73
2022/12/13 13:34:29;;;;;;;39.03;26.23;;;;;;;;;;5003908;28;98893;-73
2022/12/13 13:36:56;;;;;;;51.72;29.20;;;;;;;;;;4998311;28;98802;-73
2022/12/13 13:39:32;;;;;;;43.33;26.02;;;;;;;;;;5002925;28;99143;-73
2022/12/13 13:42:14;;;;;;;47.97;27.17;;;;;;;;;;4998806;28;101508;-72
2022/12/13 13:44:43;;;;;;;43.45;26.23;;;;;;;;;;5002060;28;99321;-72
2022/12/13 13:47:09;;;;;;;49.83;28.20;;;;;;;;;;5003262;28;99973;-72
2022/12/13 13:49:41;;;;;;;48.85;29.58;;;;;;;;;;5002259;28;100005;-72
2022/12/13 13:52:16;;;;;;;53.60;29.33;;;;;;;;;;4995800;28;100465;-72
2022/12/13 13:55:05;;;;;;;43.60;26.48;;;;;;;;;;5003290;28;100577;-73
2022/12/13 13:57:38;;;;;;;41.83;25.52;;;;;;;;;;5002020;28;99962;-72
2022/12/13 14:00:27;;;;;;;37.23;25.23;;;;;;;;;;5001291;28;98507;-72
2022/12/13 14:02:54;;;;;;;41.85;26.83;;;;;;;;;;5002869;28;98507;-72
2022/12/13 14:05:36;;;;;;;49.58;27.08;;;;;;;;;;5002741;28;99274;-72
2022/12/13 14:08:08;;;;;;;37.50;26.15;;;;;;;;;;5001698;28;100185;-72
2022/12/13 14:10:41;;;;;;;45.50;27.13;;;;;;;;;;4994635;28;101731;-72
2022/12/13 14:13:26;;;;;;;42.17;27.10;;;;;;;;;;5002670;28;99612;-72
2022/12/13 14:15:56;;;;;;;41.17;23.83;;;;;;;;;;5006029;28;100817;-73
2022/12/13 14:18:41;;;;;;;40.05;21.75;;;;;;;;;;5005914;28;100268;-72
2022/12/13 14:21:12;;;;;;;39.35;26.77;;;;;;;;;;5006141;28;100610;-72
2022/12/13 14:23:47;;;;;;;45.75;27.30;;;;;;;;;;5009591;28;100466;-72
2022/12/13 14:26:13;;;;;;;45.75;28.15;;;;;;;;;;5005709;28;99370;-72
2022/12/13 14:28:40;;;;;;;44.70;25.45;;;;;;;;;;5006049;28;100025;-71
2022/12/13 14:31:14;;;;;;;50.58;28.90;;;;;;;;;;5004591;28;100184;-72
2022/12/13 14:33:47;;;;;;;49.15;27.40;;;;;;;;;;4990727;28;101076;-72
2022/12/13 14:36:16;;;;;;;49.55;27.40;;;;;;;;;;5004177;28;99222;-72
2022/12/13 14:38:42;;;;;;;34.38;23.45;;;;;;;;;;5005968;28;100002;-72
2022/12/13 14:41:32;;;;;;;41.85;25.88;;;;;;;;;;5004517;28;99340;-72